Time;durP1;ratioP1;P1;durP2;ratioP2;P2;SDS_P1;SDS_P2;PMS_P1;PMS_P2;Temp;Humidity;BMP_temperature;BMP_pressure;BME280_temperature;BME280_humidity;BME280_pressure;Samples;Min_cycle;Max_cycle;Signal;HPM_P1;HPM_P2
2022/03/11 00:00:38;;;;;;;49.38;28.45;;;;;;;-6.72;100.00;100802.28;2082657;28;20199;-74
2022/03/11 00:01:43;;;;;;;46.13;27.67;;;;;;;-6.76;100.00;100799.19;2082619;28;20662;-74
2022/03/11 00:02:50;;;;;;;53.80;27.30;;;;;;;-6.75;100.00;100795.63;2082255;28;20238;-74
2022/03/11 00:03:58;;;;;;;50.30;27.75;;;;;;;-6.76;100.00;100804.38;2082024;28;20188;-74
2022/03/11 00:05:03;;;;;;;43.20;26.80;;;;;;;-6.66;100.00;100784.38;2082922;28;20211;-75
2022/03/11 00:06:08;;;;;;;41.10;26.88;;;;;;;-6.65;100.00;100795.59;2081457;28;20207;-73
2022/03/11 00:07:10;;;;;;;42.75;26.92;;;;;;;-6.71;100.00;100790.94;2081949;28;20275;-74
2022/03/11 00:08:19;;;;;;;49.88;28.23;;;;;;;-6.71;100.00;100790.94;2081945;28;20202;-74
2022/03/11 00:09:20;;;;;;;46.35;27.92;;;;;;;-6.74;100.00;100796.44;2082747;28;20180;-74
2022/03/11 00:10:26;;;;;;;49.50;28.27;;;;;;;-6.77;100.00;100794.13;2090140;28;20210;-74
2022/03/11 00:11:38;;;;;;;46.75;27.73;;;;;;;-6.78;100.00;100795.06;2089345;28;20199;-74
2022/03/11 00:12:46;;;;;;;49.78;29.25;;;;;;;-6.78;100.00;100795.88;2082517;28;20176;-74
2022/03/11 00:13:54;;;;;;;53.67;28.60;;;;;;;-6.73;100.00;100788.50;2082470;28;20179;-74
2022/03/11 00:15:00;;;;;;;47.42;29.25;;;;;;;-6.72;100.00;100799.69;2082582;28;20174;-74
2022/03/11 00:16:07;;;;;;;52.22;29.63;;;;;;;-6.71;100.00;100796.16;2081816;28;20204;-74
2022/03/11 00:17:27;;;;;;;50.33;29.77;;;;;;;-6.68;100.00;100794.09;2106900;27;20535;-75
2022/03/11 00:18:32;;;;;;;50.35;29.00;;;;;;;-6.67;100.00;100789.72;2106016;28;20184;-75
2022/03/11 00:19:36;;;;;;;56.55;30.75;;;;;;;-6.66;100.00;100793.94;2105154;28;20693;-74
2022/03/11 00:20:38;;;;;;;49.80;29.88;;;;;;;-6.58;100.00;100791.47;2105185;28;20696;-75
2022/03/11 00:21:42;;;;;;;48.17;29.70;;;;;;;-6.54;100.00;100792.81;2091207;28;20559;-75
2022/03/11 00:22:47;;;;;;;50.63;29.90;;;;;;;-6.56;100.00;100792.13;2088850;28;20199;-75
2022/03/11 00:23:50;;;;;;;51.17;29.95;;;;;;;-6.58;100.00;100789.69;2089329;28;20581;-75
2022/03/11 00:24:57;;;;;;;50.80;28.92;;;;;;;-6.55;100.00;100792.00;2080303;28;20597;-75
2022/03/11 00:26:03;;;;;;;47.85;29.15;;;;;;;-6.57;100.00;100787.91;2081573;28;20200;-75
2022/03/11 00:27:08;;;;;;;48.80;29.50;;;;;;;-6.47;100.00;100786.09;2088757;28;20179;-75
2022/03/11 00:28:13;;;;;;;54.25;29.75;;;;;;;-6.40;100.00;100787.16;2088923;28;20205;-75
2022/03/11 00:29:15;;;;;;;48.92;28.98;;;;;;;-6.44;100.00;100788.38;2088761;28;20577;-75
2022/03/11 00:30:26;;;;;;;46.08;30.08;;;;;;;-6.47;100.00;100788.69;2089415;28;20694;-75
2022/03/11 00:31:34;;;;;;;47.83;29.48;;;;;;;-6.51;100.00;100787.34;2089348;28;20702;-75
2022/03/11 00:32:47;;;;;;;54.20;30.00;;;;;;;-6.53;100.00;100783.25;2088532;28;20685;-75
2022/03/11 00:33:59;;;;;;;49.33;30.83;;;;;;;-6.55;100.00;100785.97;2080639;28;20180;-75
2022/03/11 00:35:07;;;;;;;46.17;29.27;;;;;;;-6.60;100.00;100781.22;2081202;28;20627;-74
2022/03/11 00:36:12;;;;;;;48.15;28.35;;;;;;;-6.57;100.00;100787.91;2080474;28;20723;-75
2022/03/11 00:37:16;;;;;;;52.63;31.52;;;;;;;-6.60;100.00;100778.63;2081010;28;20650;-75
2022/03/11 00:38:22;;;;;;;52.42;30.95;;;;;;;-6.59;100.00;100785.47;2080142;28;20207;-75
2022/03/11 00:39:29;;;;;;;47.80;28.42;;;;;;;-6.58;100.00;100781.09;2080811;28;20227;-75
2022/03/11 00:40:35;;;;;;;50.63;29.60;;;;;;;-6.61;100.00;100771.78;2087722;28;20187;-74
2022/03/11 00:41:44;;;;;;;50.38;29.83;;;;;;;-6.59;100.00;100787.25;2080134;28;20207;-75
2022/03/11 00:42:46;;;;;;;50.17;30.40;;;;;;;-6.44;100.00;100782.38;2080616;28;20254;-75
2022/03/11 00:43:47;;;;;;;45.92;28.90;;;;;;;-6.48;100.00;100784.47;2080919;28;20678;-75
2022/03/11 00:44:49;;;;;;;52.33;28.40;;;;;;;-6.52;100.00;100780.50;2081120;28;20190;-75
2022/03/11 00:45:50;;;;;;;47.88;30.50;;;;;;;-6.44;100.00;100783.19;2080894;28;20196;-75
2022/03/11 00:46:58;;;;;;;49.25;29.10;;;;;;;-6.28;100.00;100786.00;2079822;28;20192;-75
2022/03/11 00:48:04;;;;;;;48.63;28.90;;;;;;;-6.33;100.00;100784.81;2081090;28;20577;-75
2022/03/11 00:49:14;;;;;;;50.35;28.77;;;;;;;-6.34;100.00;100791.78;2088051;28;20182;-75
2022/03/11 00:50:15;;;;;;;51.50;29.77;;;;;;;-6.39;100.00;100781.00;2079816;28;20200;-75
2022/03/11 00:51:17;;;;;;;45.92;29.15;;;;;;;-6.45;100.00;100785.94;2079772;28;20223;-75
2022/03/11 00:52:21;;;;;;;53.20;30.80;;;;;;;-6.50;100.00;100786.38;2080254;28;20226;-74
2022/03/11 00:53:32;;;;;;;57.45;29.67;;;;;;;-6.53;100.00;100781.47;2081081;28;20200;-74
2022/03/11 00:54:39;;;;;;;51.88;29.35;;;;;;;-6.53;100.00;100783.25;2081000;28;20195;-74
2022/03/11 00:55:50;;;;;;;50.45;30.05;;;;;;;-6.59;100.00;100780.28;2080874;28;20271;-74
2022/03/11 00:56:57;;;;;;;48.97;29.15;;;;;;;-6.65;100.00;100777.41;2080991;28;20192;-75
2022/03/11 00:57:59;;;;;;;48.20;28.88;;;;;;;-6.67;100.00;100780.16;2080721;28;20561;-75
2022/03/11 00:59:00;;;;;;;59.67;30.33;;;;;;;-6.67;100.00;100784.53;2081020;28;20238;-74
2022/03/11 01:00:19;;;;;;;50.65;29.02;;;;;;;-6.69;100.00;100782.09;2080723;28;20271;-74
2022/03/11 01:01:23;;;;;;;54.85;29.60;;;;;;;-6.72;100.00;100779.75;2080800;28;20658;-74
2022/03/11 01:02:34;;;;;;;47.88;29.02;;;;;;;-6.69;100.00;100778.66;2080312;28;20235;-75
2022/03/11 01:03:44;;;;;;;50.50;29.52;;;;;;;-6.67;100.00;100784.53;2080056;28;20694;-75
2022/03/11 01:04:47;;;;;;;41.95;28.25;;;;;;;-6.62;100.00;100780.53;2073072;28;20219;-75
2022/03/11 01:05:48;;;;;;;47.90;29.05;;;;;;;-6.67;100.00;100782.75;2072092;28;20204;-75
2022/03/11 01:06:56;;;;;;;50.53;30.27;;;;;;;-6.67;100.00;100777.56;2071400;28;20223;-75
2022/03/11 01:08:04;;;;;;;45.83;28.67;;;;;;;-6.67;100.00;100787.94;2080467;28;20177;-75
2022/03/11 01:09:09;;;;;;;50.17;29.00;;;;;;;-6.69;100.00;100783.84;2080003;28;20693;-74
2022/03/11 01:10:17;;;;;;;47.58;29.98;;;;;;;-6.71;100.00;100785.75;2080414;28;20202;-74
2022/03/11 01:11:22;;;;;;;57.47;29.38;;;;;;;-6.72;100.00;100784.13;2080130;28;20573;-74
2022/03/11 01:12:25;;;;;;;46.63;28.23;;;;;;;-6.74;100.00;100780.88;2080895;28;20180;-74
2022/03/11 01:13:29;;;;;;;51.83;29.27;;;;;;;-6.75;100.00;100784.44;2080626;28;20223;-74
2022/03/11 01:14:33;;;;;;;54.85;29.00;;;;;;;-6.74;100.00;100791.25;2080301;28;20199;-75
2022/03/11 01:15:45;;;;;;;52.92;30.42;;;;;;;-6.77;100.00;100783.75;2080029;28;20254;-74
2022/03/11 01:16:55;;;;;;;49.30;29.45;;;;;;;-6.78;100.00;100782.09;2079519;28;20235;-74
2022/03/11 01:17:59;;;;;;;46.75;28.42;;;;;;;-6.76;100.00;100781.00;2080699;28;20267;-74
2022/03/11 01:19:05;;;;;;;49.55;28.65;;;;;;;-6.78;100.00;100785.50;2079533;28;20595;-74
2022/03/11 01:20:11;;;;;;;44.28;29.23;;;;;;;-6.80;100.00;100771.84;2080182;28;20168;-74
2022/03/11 01:21:13;;;;;;;49.85;29.15;;;;;;;-6.79;100.00;100777.88;2079475;28;20224;-74
2022/03/11 01:22:14;;;;;;;48.53;28.90;;;;;;;-6.82;100.00;100772.97;2080126;28;20230;-74
2022/03/11 01:23:24;;;;;;;43.17;27.95;;;;;;;-6.74;100.00;100775.69;2080615;28;20184;-74
2022/03/11 01:24:29;;;;;;;47.25;28.98;;;;;;;-6.65;100.00;100767.84;2080589;28;20195;-74
2022/03/11 01:25:38;;;;;;;53.78;30.55;;;;;;;-6.65;100.00;100780.84;2080191;28;20606;-74
2022/03/11 01:26:40;;;;;;;50.45;29.73;;;;;;;-6.70;100.00;100777.81;2079894;28;20258;-74
2022/03/11 01:27:45;;;;;;;46.35;29.63;;;;;;;-6.72;100.00;100779.75;2079786;28;20230;-74
2022/03/11 01:28:49;;;;;;;46.65;28.85;;;;;;;-6.76;100.00;100770.63;2074097;28;20204;-74
2022/03/11 01:29:59;;;;;;;48.30;28.55;;;;;;;-6.77;100.00;100781.16;2066728;28;20201;-74
2022/03/11 01:31:05;;;;;;;49.95;27.67;;;;;;;-6.82;100.00;100775.56;2074559;28;20571;-74
2022/03/11 01:32:20;;;;;;;45.72;28.17;;;;;;;-6.86;100.00;100775.03;2074313;28;20216;-74
2022/03/11 01:33:30;;;;;;;47.47;28.92;;;;;;;-6.90;100.00;100774.47;2068316;28;20654;-74
2022/03/11 01:34:36;;;;;;;47.58;28.23;;;;;;;-6.92;100.00;100773.00;2067988;28;20251;-74
2022/03/11 01:35:37;;;;;;;55.45;28.70;;;;;;;-6.96;100.00;100771.63;2066696;28;20212;-74
2022/03/11 01:36:43;;;;;;;51.07;30.00;;;;;;;-6.97;100.00;100775.19;2074134;28;20256;-74
2022/03/11 01:37:50;;;;;;;49.00;29.52;;;;;;;-6.98;100.00;100776.16;2074700;28;20200;-74
2022/03/11 01:38:56;;;;;;;48.88;28.05;;;;;;;-7.02;100.00;100767.84;2074595;28;20176;-74
2022/03/11 01:39:59;;;;;;;48.63;28.23;;;;;;;-7.04;100.00;100772.31;2074254;28;20575;-74
2022/03/11 01:41:06;;;;;;;52.45;28.33;;;;;;;-7.04;100.00;100768.91;2067062;28;20272;-74
2022/03/11 01:42:08;;;;;;;43.85;28.25;;;;;;;-7.05;100.00;100772.47;2066865;28;20287;-74
2022/03/11 01:43:16;;;;;;;46.85;29.05;;;;;;;-7.04;100.00;100779.28;2074418;28;20601;-74
2022/03/11 01:44:25;;;;;;;45.47;29.80;;;;;;;-7.06;100.00;100774.25;2075016;28;20211;-74
2022/03/11 01:45:37;;;;;;;46.63;29.27;;;;;;;-7.04;100.00;100776.69;2075012;28;20173;-74
2022/03/11 01:46:44;;;;;;;46.35;29.05;;;;;;;-7.04;100.00;100769.72;2074211;28;20292;-74
2022/03/11 01:47:50;;;;;;;48.85;28.20;;;;;;;-7.04;100.00;100774.91;2074664;28;20204;-74
2022/03/11 01:48:54;;;;;;;59.83;30.65;;;;;;;-7.07;100.00;100775.22;2074515;28;20211;-73
2022/03/11 01:49:59;;;;;;;49.75;28.65;;;;;;;-7.06;100.00;100769.06;2074896;28;20192;-74
2022/03/11 01:51:00;;;;;;;48.65;28.40;;;;;;;-7.03;100.00;100771.38;2074535;28;20196;-73
2022/03/11 01:52:11;;;;;;;44.17;27.23;;;;;;;-6.91;100.00;100770.25;2075058;28;20540;-74
2022/03/11 01:53:20;;;;;;;45.50;27.45;;;;;;;-6.94;100.00;100767.97;2073933;28;20256;-73
2022/03/11 01:54:35;;;;;;;51.65;30.17;;;;;;;-6.96;100.00;100772.44;2067287;28;20224;-74
2022/03/11 01:55:44;;;;;;;47.55;29.17;;;;;;;-6.99;100.00;100772.72;2068193;28;20208;-73
2022/03/11 01:56:46;;;;;;;53.05;28.70;;;;;;;-7.01;100.00;100773.84;2067535;28;20577;-73
2022/03/11 01:57:48;;;;;;;53.95;29.38;;;;;;;-7.01;100.00;100771.25;2074319;28;20180;-74
2022/03/11 01:58:54;;;;;;;45.80;28.20;;;;;;;-7.06;100.00;100781.22;2074899;28;20204;-74
2022/03/11 01:59:59;;;;;;;53.70;29.77;;;;;;;-7.09;100.00;100771.13;2075120;28;20180;-74
2022/03/11 02:01:13;;;;;;;49.72;28.58;;;;;;;-7.10;100.00;100775.50;2074894;28;20255;-74
2022/03/11 02:02:26;;;;;;;49.85;28.85;;;;;;;-7.07;100.00;100782.16;2074885;28;20211;-74
2022/03/11 02:03:31;;;;;;;46.97;28.42;;;;;;;-7.09;100.00;100777.13;2074288;28;20196;-73
2022/03/11 02:04:36;;;;;;;49.53;27.73;;;;;;;-7.08;100.00;100772.75;2075082;28;20189;-74
2022/03/11 02:05:39;;;;;;;56.38;29.50;;;;;;;-7.05;100.00;100778.47;2074909;28;20189;-74
2022/03/11 02:06:52;;;;;;;50.90;28.35;;;;;;;-7.04;100.00;100780.09;2074477;28;20659;-73
2022/03/11 02:08:04;;;;;;;47.22;26.70;;;;;;;-7.09;100.00;100779.72;2074820;28;20658;-74
2022/03/11 02:09:12;;;;;;;44.60;27.63;;;;;;;-7.08;100.00;100783.94;2073953;28;20682;-74
2022/03/11 02:10:23;;;;;;;47.80;28.48;;;;;;;-7.12;100.00;100780.00;2074203;28;20196;-73
2022/03/11 02:11:26;;;;;;;51.10;28.65;;;;;;;-7.13;100.00;100776.56;2074983;28;20215;-74
2022/03/11 02:12:34;;;;;;;46.15;28.00;;;;;;;-7.13;100.00;100783.53;2074759;28;20200;-74
2022/03/11 02:13:48;;;;;;;51.85;28.42;;;;;;;-7.09;100.00;100784.91;2067211;28;20200;-73
2022/03/11 02:14:57;;;;;;;50.10;30.08;;;;;;;-7.10;100.00;100792.84;2074509;28;20204;-74
2022/03/11 02:16:02;;;;;;;54.92;29.73;;;;;;;-7.15;100.00;100790.63;2074792;28;20219;-73
2022/03/11 02:17:11;;;;;;;55.00;29.83;;;;;;;-7.16;100.00;100787.22;2073602;28;20292;-73
2022/03/11 02:18:16;;;;;;;57.72;29.48;;;;;;;-7.16;100.00;100791.59;2074120;28;20219;-73
2022/03/11 02:19:23;;;;;;;46.15;27.75;;;;;;;-7.18;100.00;100789.16;2074052;28;20200;-74
2022/03/11 02:20:29;;;;;;;48.20;28.48;;;;;;;-7.19;100.00;100797.91;2073602;28;20200;-74
2022/03/11 02:21:44;;;;;;;49.97;28.02;;;;;;;-7.21;100.00;100791.19;2073825;28;20230;-74
2022/03/11 02:22:56;;;;;;;48.10;27.80;;;;;;;-7.19;100.00;100784.94;2074679;28;20192;-74
2022/03/11 02:24:07;;;;;;;42.40;27.40;;;;;;;-7.15;100.00;100796.66;2074657;28;20267;-74
2022/03/11 02:25:12;;;;;;;44.00;28.38;;;;;;;-7.20;100.00;100787.66;2074696;28;20188;-74
2022/03/11 02:26:19;;;;;;;48.78;26.80;;;;;;;-7.23;100.00;100790.50;2074762;28;20177;-74
2022/03/11 02:27:21;;;;;;;48.10;29.00;;;;;;;-7.15;100.00;100788.03;2074690;28;20667;-74
2022/03/11 02:28:37;;;;;;;48.88;29.50;;;;;;;-7.18;100.00;100788.34;2074097;28;20189;-74
2022/03/11 02:29:49;;;;;;;46.67;28.48;;;;;;;-7.22;100.00;100792.97;2073815;28;20211;-74
2022/03/11 02:30:56;;;;;;;48.78;29.05;;;;;;;-7.23;100.00;100796.50;2073521;28;20242;-74
2022/03/11 02:32:19;;;;;;;;;;;;;;;;;;;;;
2022/03/11 02:33:26;;;;;;;47.75;28.13;;;;;;;-7.30;100.00;100792.84;2080154;28;20237;-74
2022/03/11 02:34:28;;;;;;;54.63;28.70;;;;;;;-7.29;100.00;100788.50;2073968;28;20721;-74
2022/03/11 02:35:33;;;;;;;50.33;29.02;;;;;;;-7.30;100.00;100789.41;2074212;28;20670;-74
2022/03/11 02:36:43;;;;;;;56.13;29.13;;;;;;;-7.31;100.00;100793.78;2073652;28;20235;-74
2022/03/11 02:37:52;;;;;;;47.13;28.10;;;;;;;-7.31;100.00;100787.78;2074061;28;20266;-74
2022/03/11 02:39:02;;;;;;;45.30;27.45;;;;;;;-7.31;100.00;100787.78;2073812;28;20709;-74
2022/03/11 02:40:10;;;;;;;47.30;28.88;;;;;;;-7.35;100.00;100787.25;2073213;28;20169;-74
2022/03/11 02:41:17;;;;;;;49.58;27.15;;;;;;;-7.27;100.00;100783.97;2074523;28;20667;-74
2022/03/11 02:42:18;;;;;;;50.67;28.63;;;;;;;-7.24;100.00;100792.28;2073899;28;20348;-74
2022/03/11 02:43:27;;;;;;;50.13;30.08;;;;;;;-7.19;100.00;100790.13;2073968;28;20246;-74
2022/03/11 02:44:36;;;;;;;49.03;29.67;;;;;;;-7.22;100.00;100794.75;2074534;28;20219;-74
2022/03/11 02:45:43;;;;;;;55.72;29.58;;;;;;;-7.31;100.00;100787.78;2073708;28;20211;-74
2022/03/11 02:46:54;;;;;;;50.95;28.38;;;;;;;-7.30;100.00;100799.78;2074172;28;20172;-74
2022/03/11 02:47:57;;;;;;;50.50;28.90;;;;;;;-7.32;100.00;100786.97;2074448;28;20196;-74
2022/03/11 02:49:02;;;;;;;53.63;30.05;;;;;;;-7.31;100.00;100791.19;2073799;28;20196;-73
2022/03/11 02:50:10;;;;;;;48.80;28.83;;;;;;;-7.32;100.00;100799.13;2073731;28;20239;-74
2022/03/11 02:51:20;;;;;;;50.17;29.38;;;;;;;-7.39;100.00;100791.06;2073488;28;20228;-73
2022/03/11 02:52:28;;;;;;;55.97;30.02;;;;;;;-7.33;100.00;100794.91;2073672;28;20212;-74
2022/03/11 02:53:40;;;;;;;51.45;28.60;;;;;;;-7.34;100.00;100790.66;2073861;28;20192;-74
2022/03/11 02:54:46;;;;;;;50.15;28.70;;;;;;;-7.34;100.00;100798.44;2074429;28;20625;-74
2022/03/11 02:55:50;;;;;;;57.13;29.80;;;;;;;-7.32;100.00;100796.53;2074443;28;20647;-74
2022/03/11 02:56:57;;;;;;;50.00;29.05;;;;;;;-7.35;100.00;100794.22;2074453;28;20193;-74
2022/03/11 02:58:03;;;;;;;50.92;29.27;;;;;;;-7.40;100.00;100792.84;2074347;28;20282;-73
2022/03/11 02:59:08;;;;;;;50.78;29.35;;;;;;;-7.41;100.00;100787.78;2074413;28;20191;-73
2022/03/11 03:00:19;;;;;;;46.40;28.48;;;;;;;-7.40;100.00;100794.63;2073666;28;20192;-74
2022/03/11 03:01:26;;;;;;;56.80;29.70;;;;;;;-7.40;100.00;100789.44;2073330;28;20258;-74
2022/03/11 03:02:28;;;;;;;52.58;29.13;;;;;;;-7.37;100.00;100793.53;2073802;28;20279;-73
2022/03/11 03:03:30;;;;;;;49.97;29.00;;;;;;;-7.37;100.00;100788.34;2074531;28;20201;-73
2022/03/11 03:04:37;;;;;;;48.15;28.55;;;;;;;-7.33;100.00;100793.13;2074526;28;20251;-73
2022/03/11 03:05:44;;;;;;;52.75;29.20;;;;;;;-7.26;100.00;100796.00;2073660;28;20347;-74
2022/03/11 03:06:56;;;;;;;53.70;28.60;;;;;;;-7.31;100.00;100788.59;2065877;28;20225;-73
2022/03/11 03:08:02;;;;;;;52.33;29.27;;;;;;;-7.29;100.00;100794.50;2073871;28;20226;-74
2022/03/11 03:09:04;;;;;;;47.22;27.58;;;;;;;-7.33;100.00;100795.72;2074336;28;20216;-74
2022/03/11 03:10:10;;;;;;;47.70;29.65;;;;;;;-7.33;100.00;100789.72;2073707;28;20196;-74
2022/03/11 03:11:20;;;;;;;50.55;29.85;;;;;;;-7.33;100.00;100800.06;2073354;28;20291;-74
2022/03/11 03:12:26;;;;;;;53.45;30.42;;;;;;;-7.36;100.00;100798.59;2073822;28;20207;-74
2022/03/11 03:13:37;;;;;;;48.72;28.75;;;;;;;-7.30;100.00;100795.41;2074287;28;20211;-73
2022/03/11 03:14:44;;;;;;;53.42;30.33;;;;;;;-7.32;100.00;100796.53;2074340;28;20559;-74
2022/03/11 03:15:54;;;;;;;48.92;29.20;;;;;;;-7.38;100.00;100795.31;2074280;28;20224;-74
2022/03/11 03:16:56;;;;;;;52.03;29.02;;;;;;;-7.38;100.00;100792.72;2074328;28;20179;-73
2022/03/11 03:17:59;;;;;;;54.83;30.08;;;;;;;-7.41;100.00;100798.16;2074369;28;20262;-74
2022/03/11 03:19:04;;;;;;;51.78;30.02;;;;;;;-7.38;100.00;100797.06;2073649;28;20252;-74
2022/03/11 03:20:13;;;;;;;54.60;30.02;;;;;;;-7.43;100.00;100793.13;2073929;28;20192;-74
2022/03/11 03:21:22;;;;;;;48.75;28.88;;;;;;;-7.47;100.00;100793.53;2073983;28;20224;-73
2022/03/11 03:22:37;;;;;;;52.08;29.23;;;;;;;-7.48;100.00;100803.06;2073477;28;20208;-74
2022/03/11 03:23:41;;;;;;;53.88;28.77;;;;;;;-7.42;100.00;100792.16;2074059;28;20620;-74
2022/03/11 03:24:42;;;;;;;55.65;30.50;;;;;;;-7.31;100.00;100803.34;2074273;28;20280;-74
2022/03/11 03:25:46;;;;;;;53.50;28.80;;;;;;;-7.33;100.00;100789.72;2074260;28;20188;-74
2022/03/11 03:26:56;;;;;;;47.28;27.50;;;;;;;-7.18;100.00;100793.53;2074238;28;20279;-74
2022/03/11 03:28:02;;;;;;;53.10;30.48;;;;;;;-7.20;100.00;100795.44;2074211;28;20189;-74
2022/03/11 03:29:05;;;;;;;47.85;29.40;;;;;;;-7.03;100.00;100802.53;2074474;28;20255;-74
2022/03/11 03:30:18;;;;;;;43.42;27.65;;;;;;;-6.77;100.00;100801.91;2073409;28;20204;-74
2022/03/11 03:31:22;;;;;;;49.47;28.33;;;;;;;-6.84;100.00;100797.28;2073582;28;20200;-73
2022/03/11 03:32:27;;;;;;;45.20;27.83;;;;;;;-7.00;100.00;100801.41;2073855;28;20325;-74
2022/03/11 03:33:37;;;;;;;48.42;29.02;;;;;;;-6.98;100.00;100797.72;2073464;28;20220;-74
2022/03/11 03:34:44;;;;;;;50.33;29.08;;;;;;;-6.97;100.00;100801.13;2073811;28;20635;-74
2022/03/11 03:35:57;;;;;;;46.72;27.95;;;;;;;-6.87;100.00;100797.53;2074243;28;20179;-74
2022/03/11 03:37:05;;;;;;;48.25;27.90;;;;;;;-6.93;100.00;100797.31;2074053;28;20208;-74
2022/03/11 03:38:12;;;;;;;59.90;28.92;;;;;;;-7.09;100.00;100792.69;2074221;28;20557;-74
2022/03/11 03:39:14;;;;;;;53.03;30.10;;;;;;;-7.16;100.00;100799.38;2074420;28;20177;-74
2022/03/11 03:40:17;;;;;;;54.10;30.25;;;;;;;-7.22;100.00;100792.16;2073428;28;20197;-74
2022/03/11 03:41:28;;;;;;;53.42;30.05;;;;;;;-7.34;100.00;100786.31;2073511;28;20199;-74
2022/03/11 03:42:44;;;;;;;55.17;29.95;;;;;;;-7.34;100.00;100790.66;2074020;28;20228;-74
2022/03/11 03:43:57;;;;;;;46.67;28.27;;;;;;;-7.40;100.00;100794.63;2073428;28;20207;-74
2022/03/11 03:45:01;;;;;;;56.53;30.58;;;;;;;-7.27;100.00;100789.16;2066635;28;20212;-74
2022/03/11 03:46:06;;;;;;;54.40;29.48;;;;;;;-7.23;100.00;100787.91;2073544;28;20229;-74
2022/03/11 03:47:08;;;;;;;52.50;29.20;;;;;;;-7.35;100.00;100792.44;2073323;28;20686;-74
2022/03/11 03:48:17;;;;;;;50.17;28.20;;;;;;;-7.44;100.00;100786.31;2073595;28;20607;-73
2022/03/11 03:49:28;;;;;;;54.10;29.70;;;;;;;-7.48;100.00;100782.34;2074335;28;20172;-73
2022/03/11 03:50:40;;;;;;;48.65;28.63;;;;;;;-7.52;100.00;100785.34;2073384;28;20204;-73
2022/03/11 03:51:50;;;;;;;55.92;29.45;;;;;;;-7.57;100.00;100788.34;2072999;28;20235;-74
2022/03/11 03:52:56;;;;;;;55.08;29.77;;;;;;;-7.62;100.00;100784.53;2074071;28;20196;-74
2022/03/11 03:53:59;;;;;;;50.03;29.25;;;;;;;-7.62;100.00;100787.94;2066433;28;20205;-74
2022/03/11 03:55:03;;;;;;;52.22;30.02;;;;;;;-7.66;100.00;100783.97;2065374;28;20204;-74
2022/03/11 03:56:11;;;;;;;55.50;30.17;;;;;;;-7.57;100.00;100783.16;2073734;28;20602;-73
2022/03/11 03:57:20;;;;;;;52.05;29.92;;;;;;;-7.59;100.00;100787.66;2072883;28;20694;-74
2022/03/11 03:58:31;;;;;;;52.95;29.92;;;;;;;-7.63;100.00;100781.13;2073314;28;20219;-74
2022/03/11 03:59:39;;;;;;;57.10;29.80;;;;;;;-7.67;100.00;100782.34;2073341;28;20561;-74
2022/03/11 04:00:40;;;;;;;52.70;31.40;;;;;;;-7.70;100.00;100793.81;2072776;28;20300;-74
2022/03/11 04:01:45;;;;;;;55.13;32.65;;;;;;;-7.73;100.00;100798.41;2073675;28;20188;-74
2022/03/11 04:02:57;;;;;;;53.65;33.17;;;;;;;-7.79;100.00;100794.63;2073380;28;20283;-73
2022/03/11 04:04:02;;;;;;;59.70;32.58;;;;;;;-7.79;100.00;100794.63;2073465;28;20230;-74
2022/03/11 04:05:12;;;;;;;55.92;33.80;;;;;;;-7.83;100.00;100792.41;2072843;28;20204;-74
2022/03/11 04:06:18;;;;;;;59.42;33.60;;;;;;;-7.78;100.00;100798.84;2073112;28;20319;-73
2022/03/11 04:07:20;;;;;;;60.60;33.55;;;;;;;-7.79;100.00;100794.63;2073585;28;20200;-73
2022/03/11 04:08:25;;;;;;;55.13;34.08;;;;;;;-7.83;100.00;100798.41;2064739;28;20216;-74
2022/03/11 04:09:28;;;;;;;63.78;33.92;;;;;;;-7.85;100.00;100794.31;2066214;28;20201;-74
2022/03/11 04:10:36;;;;;;;58.15;33.65;;;;;;;-7.86;100.00;100798.69;2073403;28;20199;-74
2022/03/11 04:11:45;;;;;;;59.53;34.00;;;;;;;-7.86;100.00;100796.09;2073877;28;20191;-73
2022/03/11 04:12:54;;;;;;;52.63;32.13;;;;;;;-7.88;100.00;100794.59;2073179;28;20204;-74
2022/03/11 04:13:58;;;;;;;54.58;32.42;;;;;;;-7.92;100.00;100798.41;2065579;28;20280;-74
2022/03/11 04:15:02;;;;;;;57.90;34.17;;;;;;;-7.94;100.00;100797.72;2065527;28;20205;-74
2022/03/11 04:16:07;;;;;;;52.55;31.63;;;;;;;-7.97;100.00;100796.22;2073324;28;20279;-74
2022/03/11 04:17:12;;;;;;;54.00;33.15;;;;;;;-7.99;100.00;100798.94;2073741;28;20270;-73
2022/03/11 04:18:24;;;;;;;50.17;31.38;;;;;;;-7.99;100.00;100798.94;2072979;28;20216;-73
2022/03/11 04:19:33;;;;;;;54.03;31.73;;;;;;;-7.96;100.00;100795.25;2072783;28;20215;-74
2022/03/11 04:20:42;;;;;;;49.13;30.73;;;;;;;-7.98;100.00;100803.19;2065494;28;20205;-73
2022/03/11 04:21:43;;;;;;;55.00;32.05;;;;;;;-7.97;100.00;100797.03;2065860;28;20243;-74
2022/03/11 04:22:46;;;;;;;56.57;31.53;;;;;;;-8.00;100.00;100786.94;2073174;28;20291;-74
2022/03/11 04:23:50;;;;;;;49.53;32.08;;;;;;;-8.01;100.00;100795.66;2073393;28;20223;-74
2022/03/11 04:24:57;;;;;;;52.58;31.65;;;;;;;-7.91;100.00;100789.66;2073848;28;20208;-75
2022/03/11 04:26:01;;;;;;;52.90;32.65;;;;;;;-7.95;100.00;100788.31;2074041;28;20219;-73
2022/03/11 04:27:10;;;;;;;52.58;31.70;;;;;;;-7.98;100.00;100798.00;2073791;28;20189;-73
2022/03/11 04:28:16;;;;;;;55.28;32.00;;;;;;;-8.03;100.00;100792.38;2073901;28;20677;-73
2022/03/11 04:29:26;;;;;;;51.17;31.50;;;;;;;-8.04;100.00;100795.94;2072748;28;20287;-73
2022/03/11 04:30:28;;;;;;;53.13;31.92;;;;;;;-8.05;100.00;100796.06;2073507;28;20204;-73
2022/03/11 04:31:34;;;;;;;53.97;32.13;;;;;;;-8.08;100.00;100799.75;2073864;28;20188;-73
2022/03/11 04:32:41;;;;;;;59.17;32.45;;;;;;;-8.05;100.00;100796.88;2074136;28;20177;-73
2022/03/11 04:33:50;;;;;;;62.28;32.47;;;;;;;-8.04;100.00;100795.94;2073977;28;20666;-73
2022/03/11 04:34:54;;;;;;;54.20;30.58;;;;;;;-8.04;100.00;100797.69;2072806;28;20271;-73
2022/03/11 04:35:56;;;;;;;50.75;29.85;;;;;;;-8.06;100.00;100803.03;2072810;28;20208;-72
2022/03/11 04:37:01;;;;;;;49.35;31.10;;;;;;;-8.09;100.00;100799.84;2073913;28;20176;-73
2022/03/11 04:38:09;;;;;;;50.55;30.35;;;;;;;-8.11;100.00;100802.59;2073780;28;20239;-73
2022/03/11 04:39:14;;;;;;;53.67;31.25;;;;;;;-8.18;100.00;100798.88;2073768;28;20614;-72
2022/03/11 04:40:15;;;;;;;55.75;31.63;;;;;;;-8.15;100.00;100803.81;2073165;28;20665;-73
2022/03/11 04:41:23;;;;;;;52.57;29.93;;;;;;;-8.05;100.00;100803.84;2073507;28;20200;-73
2022/03/11 04:42:27;;;;;;;51.55;30.65;;;;;;;-8.08;100.00;100810.09;2073856;28;20869;-73
2022/03/11 04:43:36;;;;;;;45.92;30.23;;;;;;;-8.13;100.00;100807.09;2074063;28;20189;-73
2022/03/11 04:44:42;;;;;;;55.30;30.70;;;;;;;-8.12;100.00;100806.13;2074091;28;20612;-73
2022/03/11 04:45:48;;;;;;;51.45;31.05;;;;;;;-8.11;100.00;100804.34;2073522;28;20200;-73
2022/03/11 04:46:51;;;;;;;56.55;33.25;;;;;;;-8.11;100.00;100800.00;2073287;28;20184;-73
2022/03/11 04:47:56;;;;;;;48.70;30.25;;;;;;;-8.09;100.00;100811.03;2072768;28;20667;-73
2022/03/11 04:49:05;;;;;;;50.67;30.50;;;;;;;-8.11;100.00;100804.34;2065878;28;20601;-73
2022/03/11 04:50:09;;;;;;;55.95;30.67;;;;;;;-8.12;100.00;100807.91;2065354;28;20264;-73
2022/03/11 04:51:12;;;;;;;50.78;30.92;;;;;;;-8.13;100.00;100809.66;2072618;28;20224;-73
2022/03/11 04:52:21;;;;;;;55.05;30.08;;;;;;;-8.14;100.00;100809.81;2073313;28;20223;-73
2022/03/11 04:53:26;;;;;;;61.33;30.20;;;;;;;-8.13;100.00;100803.69;2072606;28;20200;-73
2022/03/11 04:54:32;;;;;;;56.53;31.15;;;;;;;-8.08;100.00;100812.69;2065682;28;20205;-73
2022/03/11 04:55:37;;;;;;;57.00;30.80;;;;;;;-8.09;100.00;100811.03;2073320;28;20185;-73
2022/03/11 04:56:41;;;;;;;55.13;30.77;;;;;;;-8.08;100.00;100807.50;2073783;28;20246;-73
2022/03/11 04:57:46;;;;;;;52.90;31.20;;;;;;;-8.13;100.00;100791.53;2073708;28;20192;-73
2022/03/11 04:58:57;;;;;;;49.95;29.75;;;;;;;-8.12;100.00;100800.94;2073591;28;20224;-73
2022/03/11 05:00:03;;;;;;;51.30;30.33;;;;;;;-8.13;100.00;100801.09;2073271;28;20717;-73